»·PEaware :: N6515D KSAN-KTRM

N6515D :: KSAN-KTRM

FLIGHT INFORMATION

Flight Status: Arrived
Operator: Privately registered:
United States
More flights under this callsign
Pilot: Charles S. (11412)
Aircraft: Unknown
(DA62)
More flights by this aircraft type
Origin: KSAN San Diego Intl-Lindbergh
United States
Destination: KTRM Desert Resorts Regl
United States
More flights between these airports :: More routes between these airports
Route: +JLI V208 TRM
File this flight plan on PilotEdge
Remarks:
Altitude:
(Current/Filed)
10,000ft
Speed:
(Current/Filed)
190kts
Departed: 28-Apr-18 12:49 PM
Arrived: 28-Apr-18 01:24 PM
Distance/Time
Traveled:
75nm/0:35
Distance/Time
To Go:
Arrived

Flight Plot

Page will automatically refresh every two minutes.


Map Options




Map Legend


Flown Route
Filed Route
Departure Airport
Arrival Airport
Navaid (VOR, NDB)
Fix

Horizontal Profiles

Position Reports

Time Latitude Longitude Heading Altitude Ground
Speed
28-Apr-18 12:32 32.732517 -117.177103 193 21ft 0kts
28-Apr-18 12:33 32.732517 -117.177103 193 21ft 0kts
28-Apr-18 12:34 32.732517 -117.177103 193 21ft 0kts
28-Apr-18 12:35 32.732517 -117.177103 193 21ft 0kts
28-Apr-18 12:36 32.732517 -117.177103 193 21ft 0kts
28-Apr-18 12:37 32.732517 -117.177103 193 21ft 0kts
28-Apr-18 12:38 32.732517 -117.177103 193 21ft 0kts
28-Apr-18 12:39 32.732517 -117.177103 193 21ft 0kts
28-Apr-18 12:40 32.732517 -117.177103 193 21ft 0kts
28-Apr-18 12:41 32.732517 -117.177103 193 21ft 0kts
28-Apr-18 12:42 32.732517 -117.177103 193 21ft 0kts
28-Apr-18 12:43 32.732517 -117.177103 193 21ft 0kts
28-Apr-18 12:44 32.732482 -117.177111 186 21ft 0kts
28-Apr-18 12:45 32.732187 -117.177117 181 20ft 9kts
28-Apr-18 12:46 32.731063 -117.175687 128 21ft 0kts
28-Apr-18 12:47 32.730464 -117.176887 281 20ft 31kts
28-Apr-18 12:48 32.736776 -117.202858 293 569ft 94kts
28-Apr-18 12:49 32.761155 -117.228338 316 1153ft 128kts
28-Apr-18 12:50 32.789259 -117.254629 318 1948ft 133kts
28-Apr-18 12:51 32.822108 -117.285723 318 2098ft 155kts
28-Apr-18 12:52 32.856364 -117.309725 6 2855ft 146kts
28-Apr-18 12:53 32.894684 -117.297484 37 3638ft 145kts
28-Apr-18 12:54 32.912463 -117.255100 65 4434ft 145kts
28-Apr-18 12:55 32.927903 -117.210929 64 5226ft 144kts
28-Apr-18 12:56 32.943085 -117.167010 64 6015ft 144kts
28-Apr-18 12:57 32.949056 -117.149707 64 6326ft 144kts
28-Apr-18 12:58 32.960729 -117.115502 63 6933ft 145kts
28-Apr-18 12:59 32.976494 -117.070162 65 7727ft 152kts
28-Apr-18 13:00 32.992671 -117.023113 64 8524ft 155kts
28-Apr-18 13:01 33.009467 -116.973935 65 8979ft 176kts
28-Apr-18 13:02 33.028959 -116.916779 65 8973ft 192kts
28-Apr-18 13:03 33.048898 -116.858298 65 8971ft 194kts
28-Apr-18 13:04 33.069295 -116.798360 65 8970ft 195kts
28-Apr-18 13:05 33.089475 -116.738456 66 8972ft 196kts
28-Apr-18 13:06 33.109022 -116.680210 66 8972ft 196kts
28-Apr-18 13:07 33.129371 -116.619756 66 8971ft 196kts
28-Apr-18 13:08 33.160410 -116.569330 32 8964ft 193kts
28-Apr-18 13:09 33.203458 -116.531839 31 8933ft 193kts
28-Apr-18 13:10 33.246674 -116.494175 31 8888ft 192kts
28-Apr-18 13:11 33.289572 -116.456652 32 8830ft 191kts
28-Apr-18 13:12 33.332151 -116.419590 31 8796ft 189kts
28-Apr-18 13:13 33.374476 -116.382715 32 8780ft 188kts
28-Apr-18 13:14 33.416394 -116.346159 32 8778ft 187kts
28-Apr-18 13:15 33.457728 -116.309944 32 8778ft 186kts
28-Apr-18 13:16 33.487182 -116.284415 29 8197ft 185kts
28-Apr-18 13:17 33.501202 -116.254320 68 6411ft 211kts
28-Apr-18 13:18 33.519120 -116.192281 65 4171ft 184kts
28-Apr-18 13:19 33.532709 -116.134924 68 2226ft 161kts
28-Apr-18 13:20 33.564381 -116.147275 317 1378ft 111kts
28-Apr-18 13:21 33.589561 -116.156742 356 387ft 89kts
28-Apr-18 13:22 33.614270 -116.156436 359 -52ft 91kts
28-Apr-18 13:23 33.629648 -116.157016 282 -113ft 17kts
28-Apr-18 13:24 33.633819 -116.157743 357 -110ft 19kts
28-Apr-18 13:25 33.634586 -116.162814 283 -108ft 15kts
28-Apr-18 13:26 33.634609 -116.163024 271 -107ft 0kts
28-Apr-18 13:27 33.634609 -116.163024 271 -107ft 0kts
28-Apr-18 13:28 33.634609 -116.163024 271 -107ft 0kts
28-Apr-18 13:29 33.634609 -116.163024 271 -107ft 0kts
28-Apr-18 13:30 33.634609 -116.163024 271 -107ft 0kts

Navigation Log

Ident Type
1. KSAN Airport
2. JLI Navaid
3. WARNE Fix
4. TRM Navaid
5. KTRM Airport